Time;durP1;ratioP1;P1;durP2;ratioP2;P2;SDS_P1;SDS_P2;PMS_P1;PMS_P2;Temp;Humidity;BMP_temperature;BMP_pressure;BME280_temperature;BME280_humidity;BME280_pressure;Samples;Min_cycle;Max_cycle;Signal;HPM_P1;HPM_P2
2022/01/18 00:01:39;;;;;;;77.45;38.25;;;;;;;1.85;100.00;101859.13;4898173;29;20399;-71
2022/01/18 00:04:08;;;;;;;80.97;37.88;;;;;;;1.72;100.00;101859.81;4897386;29;20048;-71
2022/01/18 00:06:39;;;;;;;77.95;38.58;;;;;;;1.65;100.00;101864.28;4898222;29;20056;-71
2022/01/18 00:09:08;;;;;;;77.25;38.38;;;;;;;1.60;100.00;101879.19;4897533;29;20044;-71
2022/01/18 00:11:47;;;;;;;72.78;37.03;;;;;;;1.69;100.00;101885.31;4897297;29;20052;-71
2022/01/18 00:14:27;;;;;;;79.70;42.53;;;;;;;1.53;100.00;101894.44;4898204;29;20059;-71
2022/01/18 00:17:16;;;;;;;98.40;50.38;;;;;;;1.42;100.00;101887.66;4898113;29;20068;-71
2022/01/18 00:19:54;;;;;;;93.93;44.95;;;;;;;1.34;100.00;101891.28;4898123;29;20052;-71
2022/01/18 00:22:25;;;;;;;92.28;47.47;;;;;;;1.25;100.00;101892.41;4897828;29;20081;-72
2022/01/18 00:24:54;;;;;;;86.28;44.25;;;;;;;1.30;100.00;101898.06;4898032;29;20048;-71
2022/01/18 00:27:27;;;;;;;79.90;42.00;;;;;;;1.30;100.00;101906.16;4897871;29;20052;-71
2022/01/18 00:32:48;;;;;;;73.05;38.78;;;;;;;1.38;100.00;101920.59;4897808;29;20060;-71
2022/01/18 00:35:16;;;;;;;80.13;40.85;;;;;;;1.39;100.00;101925.78;4897352;29;20419;-71
2022/01/18 00:37:52;;;;;;;76.72;37.75;;;;;;;1.34;100.00;101928.22;4885668;29;20053;-72
2022/01/18 00:40:20;;;;;;;72.60;37.45;;;;;;;1.29;100.00;101938.72;4898006;29;20068;-71
2022/01/18 00:42:48;;;;;;;69.30;37.45;;;;;;;1.20;100.00;101937.94;4897505;29;20055;-71
2022/01/18 00:45:16;;;;;;;67.57;36.03;;;;;;;1.14;100.00;101949.47;4897984;29;20048;-71
2022/01/18 00:47:46;;;;;;;66.25;34.65;;;;;;;1.20;100.00;101962.22;4896367;29;20051;-71
2022/01/18 00:50:13;;;;;;;71.90;34.92;;;;;;;1.18;100.00;101964.28;4896396;29;20075;-71
2022/01/18 00:52:43;;;;;;;78.55;37.38;;;;;;;1.15;100.00;101961.94;4897586;29;20060;-71
2022/01/18 00:55:13;;;;;;;68.30;35.85;;;;;;;1.16;100.00;101960.91;4897532;29;20055;-71
2022/01/18 00:57:41;;;;;;;73.50;36.65;;;;;;;1.15;100.00;101973.56;4897570;29;20626;-71
2022/01/18 01:00:10;;;;;;;73.68;37.30;;;;;;;1.03;100.00;101972.31;4897424;29;20048;-71
2022/01/18 01:02:37;;;;;;;75.05;36.63;;;;;;;0.94;100.00;101963.47;4896791;29;20048;-72
2022/01/18 01:05:06;;;;;;;71.95;35.40;;;;;;;0.90;100.00;101960.31;4897356;29;20040;-71
2022/01/18 01:07:37;;;;;;;77.03;36.63;;;;;;;0.78;100.00;101948.28;4897385;29;20048;-71
2022/01/18 01:10:25;;;;;;;69.97;35.38;;;;;;;1.13;100.00;101970.19;4896703;29;20063;-71
2022/01/18 01:12:53;;;;;;;74.70;36.22;;;;;;;1.12;100.00;101989.28;4894996;29;20048;-71
2022/01/18 01:15:24;;;;;;;72.15;34.45;;;;;;;1.13;100.00;102007.13;4897070;29;20045;-71
2022/01/18 01:18:13;;;;;;;82.93;37.58;;;;;;;1.10;100.00;102010.16;4897418;29;20045;-71
2022/01/18 01:34:54;;;;;;;75.75;35.75;;;;;;;0.73;100.00;102021.56;4897198;29;20048;-71
2022/01/18 01:42:58;;;;;;;67.13;33.80;;;;;;;0.95;100.00;102021.75;4890613;29;20048;-71
2022/01/18 01:45:29;;;;;;;67.18;34.42;;;;;;;0.85;100.00;102023.84;4897053;29;20047;-71
2022/01/18 01:47:59;;;;;;;65.53;33.45;;;;;;;0.72;100.00;102019.88;4897034;29;20487;-71
2022/01/18 01:53:30;;;;;;;65.95;33.40;;;;;;;0.71;100.00;102017.34;4895492;29;20044;-71
2022/01/18 01:55:59;;;;;;;70.88;34.50;;;;;;;0.86;100.00;102020.97;4897157;29;20056;-71
2022/01/18 01:58:28;;;;;;;65.63;33.40;;;;;;;0.90;100.00;102018.75;4896685;29;20044;-71
2022/01/18 02:01:04;;;;;;;67.25;34.40;;;;;;;0.74;100.00;102017.84;4896879;29;20041;-71
2022/01/18 02:03:33;;;;;;;75.90;35.28;;;;;;;0.67;100.00;102019.56;4895785;29;20056;-71
2022/01/18 02:06:02;;;;;;;71.32;35.63;;;;;;;0.72;100.00;102022.56;4896940;29;20048;-71
2022/01/18 02:08:30;;;;;;;79.07;35.65;;;;;;;0.60;100.00;102007.84;4896697;29;20049;-71
2022/01/18 02:10:58;;;;;;;72.03;35.58;;;;;;;0.49;100.00;102001.81;4896800;29;20075;-71
2022/01/18 02:13:26;;;;;;;68.15;34.80;;;;;;;0.44;100.00;102004.22;4895347;29;20048;-71
2022/01/18 02:24:08;;;;;;;64.90;33.35;;;;;;;0.51;100.00;102013.28;4896721;29;20053;-71
2022/01/18 02:26:44;;;;;;;69.78;34.58;;;;;;;0.43;100.00;102017.88;4896857;29;20048;-71
2022/01/18 02:29:12;;;;;;;71.07;34.00;;;;;;;0.36;100.00;102023.13;4900312;29;20044;-71
2022/01/18 02:31:41;;;;;;;68.05;33.70;;;;;;;0.30;100.00;102029.19;4900105;29;20044;-71
2022/01/18 02:34:15;;;;;;;82.80;35.88;;;;;;;0.23;100.00;102027.22;4886261;29;20049;-71
2022/01/18 02:36:44;;;;;;;67.68;34.25;;;;;;;0.31;100.00;102023.66;4896121;29;20063;-71
2022/01/18 02:39:13;;;;;;;64.95;34.13;;;;;;;0.26;100.00;102034.94;4900000;29;20040;-71
2022/01/18 02:41:41;;;;;;;75.10;33.72;;;;;;;0.17;100.00;102030.59;4899901;29;20053;-71
2022/01/18 02:44:12;;;;;;;69.60;35.20;;;;;;;0.09;100.00;102033.31;4899870;29;20059;-71
2022/01/18 02:46:43;;;;;;;72.15;34.85;;;;;;;0.05;100.00;102038.19;4900119;29;20049;-71
2022/01/18 02:49:10;;;;;;;64.88;33.53;;;;;;;0.08;100.00;102042.41;4899828;29;20048;-71
2022/01/18 02:51:38;;;;;;;59.78;31.45;;;;;;;0.12;100.00;102038.34;4899798;29;20060;-71
2022/01/18 02:54:15;;;;;;;64.10;31.88;;;;;;;0.09;100.00;102041.38;4899816;29;20044;-71
2022/01/18 02:56:55;;;;;;;55.97;28.58;;;;;;;0.01;100.00;102041.44;4899813;29;20056;-71
2022/01/18 02:59:46;;;;;;;62.30;29.73;;;;;;;0.01;100.00;102036.91;4898799;29;20059;-71
2022/01/18 03:05:14;;;;;;;54.72;29.92;;;;;;;0.00;100.00;102051.38;4899598;29;20037;-71
2022/01/18 03:07:42;;;;;;;64.53;29.52;;;;;;;-0.03;100.00;102044.47;4899712;29;20044;-71
2022/01/18 03:10:12;;;;;;;58.28;30.33;;;;;;;-0.08;100.00;102046.84;4899496;29;20044;-71
2022/01/18 03:12:40;;;;;;;67.28;33.10;;;;;;;-0.08;100.00;102052.22;4899747;29;20052;-71
2022/01/18 03:15:09;;;;;;;57.22;29.60;;;;;;;-0.10;100.00;102061.47;4899434;29;20500;-71
2022/01/18 03:17:37;;;;;;;61.33;34.05;;;;;;;-0.08;100.00;102063.00;4899464;29;20110;-71
2022/01/18 03:20:06;;;;;;;67.90;33.55;;;;;;;-0.08;100.00;102065.69;4899334;29;20053;-71
2022/01/18 03:22:34;;;;;;;70.60;34.00;;;;;;;-0.10;100.00;102070.38;4899174;29;20057;-71
2022/01/18 03:25:14;;;;;;;68.45;36.45;;;;;;;-0.12;100.00;102069.72;4899379;29;20045;-71
2022/01/18 03:30:28;;;;;;;81.75;36.10;;;;;;;-0.15;100.00;102070.03;4899135;29;20049;-71
2022/01/18 03:32:56;;;;;;;80.63;37.80;;;;;;;-0.10;100.00;102077.63;4898441;29;20044;-71
2022/01/18 03:35:24;;;;;;;78.72;36.72;;;;;;;-0.15;100.00;102075.44;4899072;29;20076;-71
2022/01/18 03:37:52;;;;;;;81.65;38.55;;;;;;;-0.20;100.00;102088.59;4899057;29;20056;-71
2022/01/18 03:40:20;;;;;;;82.55;39.33;;;;;;;-0.07;100.00;102086.19;4886021;29;20048;-71
2022/01/18 03:42:49;;;;;;;79.05;39.20;;;;;;;-0.08;100.00;102089.06;4885731;29;20052;-71
2022/01/18 03:45:24;;;;;;;82.25;40.38;;;;;;;0.11;100.00;102095.91;4899092;29;20496;-71
2022/01/18 03:47:55;;;;;;;82.95;39.17;;;;;;;0.29;100.00;102092.16;4898935;29;20395;-71
2022/01/18 03:50:24;;;;;;;84.80;38.50;;;;;;;0.15;100.00;102097.25;4898802;29;20048;-71
2022/01/18 03:52:52;;;;;;;77.72;39.45;;;;;;;0.06;100.00;102114.44;4898554;29;20056;-71
2022/01/18 03:55:22;;;;;;;81.10;37.30;;;;;;;-0.02;100.00;102113.44;4897526;29;20048;-71
2022/01/18 03:57:49;;;;;;;77.20;37.40;;;;;;;0.20;100.00;102112.88;4898750;29;20079;-70
2022/01/18 04:00:23;;;;;;;73.15;35.70;;;;;;;0.07;100.00;102106.19;4897936;29;20503;-70
2022/01/18 04:02:53;;;;;;;75.70;35.92;;;;;;;-0.10;100.00;102110.75;4898505;29;20408;-70
2022/01/18 04:05:28;;;;;;;73.53;37.15;;;;;;;-0.17;100.00;102124.06;4898670;29;20041;-70
2022/01/18 04:07:56;;;;;;;79.68;38.20;;;;;;;-0.12;100.00;102126.22;4898552;29;20372;-70
2022/01/18 04:10:24;;;;;;;83.28;38.63;;;;;;;0.01;100.00;102133.78;4896964;29;20045;-70
2022/01/18 04:12:55;;;;;;;91.38;39.13;;;;;;;0.01;100.00;102149.94;4898286;29;20053;-70
2022/01/18 04:15:23;;;;;;;80.45;39.40;;;;;;;-0.12;100.00;102139.69;4898315;29;20051;-70
2022/01/18 04:31:05;;;;;;;79.60;35.95;;;;;;;-0.41;100.00;102168.78;4895928;29;20488;-70
2022/01/18 04:33:34;;;;;;;87.85;40.22;;;;;;;-0.44;100.00;102157.53;4898061;29;20360;-70
2022/01/18 04:36:03;;;;;;;81.05;39.58;;;;;;;-0.43;100.00;102162.72;4898092;29;20503;-70
2022/01/18 04:38:32;;;;;;;80.32;37.97;;;;;;;-0.44;100.00;102168.28;4897986;29;20056;-70
2022/01/18 04:41:07;;;;;;;85.55;40.47;;;;;;;-0.22;100.00;102172.16;4897756;29;20484;-70
2022/01/18 04:49:04;;;;;;;82.22;37.13;;;;;;;-0.15;100.00;102166.94;4896912;29;20056;-70
2022/01/18 04:51:32;;;;;;;73.15;36.85;;;;;;;-0.21;100.00;102164.91;4896308;29;20052;-70
2022/01/18 04:54:02;;;;;;;79.90;39.75;;;;;;;-0.15;100.00;102175.84;4896700;29;20380;-70
2022/01/18 04:59:07;;;;;;;81.97;39.55;;;;;;;-0.13;100.00;102170.31;4896854;29;20048;-70
2022/01/18 05:01:37;;;;;;;74.38;36.92;;;;;;;-0.10;100.00;102172.66;4894171;29;20044;-71
2022/01/18 05:04:06;;;;;;;75.45;38.40;;;;;;;0.11;100.00;102171.28;4896642;29;20056;-71
2022/01/18 05:06:34;;;;;;;80.70;38.10;;;;;;;0.02;100.00;102166.91;4895388;29;20488;-71
2022/01/18 05:09:09;;;;;;;76.60;38.80;;;;;;;-0.11;100.00;102173.66;4896017;29;20051;-71
2022/01/18 05:12:35;;;;;;;73.30;34.42;;;;;;;-0.22;100.00;102184.75;4896441;29;20052;-71
2022/01/18 05:14:29;;;;;;;78.68;35.05;;;;;;;-0.34;100.00;102179.72;4889240;29;20053;-71
2022/01/18 05:17:20;;;;;;;76.93;35.92;;;;;;;-0.43;100.00;102181.56;4894361;29;20052;-70
2022/01/18 05:20:13;;;;;;;67.47;32.92;;;;;;;-0.53;100.00;102180.88;4896501;29;20429;-71
2022/01/18 05:25:23;;;;;;;60.00;32.08;;;;;;;-0.65;100.00;102191.09;4892512;29;20048;-71
2022/01/18 05:27:51;;;;;;;63.97;32.00;;;;;;;-0.64;100.00;102197.34;4896262;29;20048;-71
2022/01/18 05:30:18;;;;;;;71.70;32.20;;;;;;;-0.67;100.00;102195.81;4895247;29;20045;-70
2022/01/18 05:32:47;;;;;;;61.90;32.50;;;;;;;-0.69;100.00;102190.59;4892621;29;20043;-70
2022/01/18 05:35:16;;;;;;;65.35;32.15;;;;;;;-0.66;100.00;102197.50;4896056;29;20416;-70
2022/01/18 05:37:46;;;;;;;70.03;33.95;;;;;;;-0.57;100.00;102206.41;4895221;29;20053;-71
2022/01/18 05:40:17;;;;;;;71.18;34.08;;;;;;;-0.60;100.00;102212.97;4893315;29;21307;-70
2022/01/18 05:42:47;;;;;;;71.53;33.58;;;;;;;-0.69;100.00;102203.19;4840705;29;1561542;-71
2022/01/18 05:45:17;;;;;;;76.40;32.47;;;;;;;-0.76;100.00;102204.84;4895794;29;20053;-72
2022/01/18 05:47:46;;;;;;;68.63;33.63;;;;;;;-0.79;100.00;102206.03;4894415;29;20055;-70
2022/01/18 05:50:15;;;;;;;69.43;35.55;;;;;;;-0.82;100.00;102212.56;4895941;29;20052;-71
2022/01/18 05:52:45;;;;;;;70.82;34.85;;;;;;;-0.67;100.00;102211.94;4896252;29;20075;-70
2022/01/18 05:55:15;;;;;;;66.03;32.83;;;;;;;-0.68;100.00;102215.66;4895534;29;20056;-69
2022/01/18 05:57:44;;;;;;;70.75;32.85;;;;;;;-0.69;100.00;102219.31;4895212;29;20045;-70
2022/01/18 06:00:21;;;;;;;70.00;32.95;;;;;;;-0.68;100.00;102207.59;4894818;29;20056;-70
2022/01/18 06:08:36;;;;;;;;;;;;;;;-0.77;100.00;102211.25;4933594;29;20121;-69
2022/01/18 06:11:04;;;;;;;66.82;29.38;;;;;;;-0.73;100.00;102209.91;4901067;29;19927;-68
2022/01/18 06:13:32;;;;;;;67.43;32.53;;;;;;;-0.50;100.00;102206.63;4899282;29;20048;-69
2022/01/18 06:16:04;;;;;;;59.85;30.67;;;;;;;-0.40;100.00;102212.66;4897402;29;20075;-70
2022/01/18 06:18:33;;;;;;;66.18;33.03;;;;;;;-0.46;100.00;102218.69;4898862;29;20048;-70
2022/01/18 06:21:02;;;;;;;61.33;31.20;;;;;;;-0.04;100.00;102219.59;4895306;29;20041;-70
2022/01/18 06:23:30;;;;;;;62.03;30.60;;;;;;;-0.12;100.00;102223.13;4899334;29;20076;-71
2022/01/18 06:26:02;;;;;;;64.32;33.90;;;;;;;-0.21;100.00;102237.56;4898671;29;20049;-71
2022/01/18 06:28:32;;;;;;;58.33;29.05;;;;;;;-0.34;100.00;102244.28;4899286;29;20053;-71
2022/01/18 06:31:00;;;;;;;56.80;29.20;;;;;;;-0.46;100.00;102256.34;4898839;29;20052;-71
2022/01/18 06:33:28;;;;;;;60.13;30.15;;;;;;;-0.62;100.00;102258.03;4899174;29;20492;-70
2022/01/18 06:35:56;;;;;;;54.65;28.98;;;;;;;-0.66;100.00;102262.03;4899449;29;20404;-70
2022/01/18 06:38:24;;;;;;;57.83;30.13;;;;;;;-0.72;100.00;102268.91;4899811;29;20075;-71
2022/01/18 06:40:52;;;;;;;58.55;30.27;;;;;;;-0.69;100.00;102270.41;4899468;29;20396;-71
2022/01/18 06:43:20;;;;;;;61.38;31.02;;;;;;;-0.54;100.00;102278.69;4899842;29;20053;-69
2022/01/18 06:45:48;;;;;;;75.20;32.10;;;;;;;-0.58;100.00;102280.88;4900167;29;20480;-69
2022/01/18 06:48:16;;;;;;;62.80;32.03;;;;;;;-0.59;100.00;102273.81;4898440;29;20056;-69
2022/01/18 06:50:44;;;;;;;73.18;34.90;;;;;;;-0.40;100.00;102287.97;4899363;29;20045;-69
2022/01/18 06:53:12;;;;;;;70.97;34.25;;;;;;;-0.44;100.00;102283.97;4899465;29;20052;-69
2022/01/18 06:55:40;;;;;;;71.63;35.35;;;;;;;-0.42;100.00;102290.84;4899736;29;20059;-69
2022/01/18 06:58:08;;;;;;;71.25;33.90;;;;;;;-0.33;100.00;102299.78;4898020;29;20045;-69
2022/01/18 07:00:36;;;;;;;74.53;34.88;;;;;;;-0.34;100.00;102298.09;4899465;29;20056;-69
2022/01/18 07:03:04;;;;;;;63.83;32.47;;;;;;;-0.37;100.00;102292.19;4898135;29;20052;-69
2022/01/18 07:05:33;;;;;;;64.95;34.10;;;;;;;-0.36;100.00;102288.50;4899372;29;20044;-69
2022/01/18 07:08:01;;;;;;;64.45;30.48;;;;;;;-0.32;100.00;102300.63;4898425;29;20056;-69
2022/01/18 07:10:31;;;;;;;73.53;34.00;;;;;;;-0.32;100.00;102304.16;4899085;29;20040;-69
2022/01/18 07:13:00;;;;;;;69.55;33.72;;;;;;;-0.30;100.00;102322.81;4897644;29;20049;-69
2022/01/18 07:15:29;;;;;;;62.53;32.08;;;;;;;-0.26;100.00;102310.72;4899001;29;20056;-69
2022/01/18 07:17:57;;;;;;;69.47;32.90;;;;;;;-0.13;100.00;102321.03;4899450;29;20040;-70
2022/01/18 07:20:25;;;;;;;69.10;34.55;;;;;;;0.02;100.00;102317.66;4898975;29;20040;-69
2022/01/18 07:22:53;;;;;;;72.95;34.50;;;;;;;0.21;100.00;102338.06;4898875;29;20041;-69
2022/01/18 07:25:21;;;;;;;78.63;34.38;;;;;;;0.46;100.00;102336.22;4898951;29;20055;-69
2022/01/18 07:27:49;;;;;;;75.65;37.50;;;;;;;0.73;100.00;102344.13;4897777;29;20045;-69
2022/01/18 07:30:17;;;;;;;79.90;40.75;;;;;;;0.92;100.00;102346.44;4898646;29;20070;-69
2022/01/18 07:32:45;;;;;;;92.13;40.33;;;;;;;1.00;100.00;102348.28;4898735;29;20064;-69
2022/01/18 07:35:13;;;;;;;83.50;39.88;;;;;;;1.15;100.00;102352.94;4898904;29;20052;-69
2022/01/18 07:37:41;;;;;;;80.10;39.83;;;;;;;1.13;100.00;102369.28;4898593;29;20067;-69
2022/01/18 07:40:09;;;;;;;84.22;40.08;;;;;;;1.20;100.00;102361.38;4898688;29;20542;-69
2022/01/18 07:42:37;;;;;;;80.43;38.53;;;;;;;1.23;100.00;102366.44;4898264;29;20056;-69
2022/01/18 07:45:06;;;;;;;86.45;40.00;;;;;;;1.21;100.00;102387.31;4898601;29;20048;-69
2022/01/18 07:47:34;;;;;;;80.55;37.20;;;;;;;1.45;100.00;102377.47;4898555;29;20048;-70
2022/01/18 07:50:03;;;;;;;80.85;39.90;;;;;;;1.39;100.00;102388.97;4897306;29;20049;-70
2022/01/18 07:52:32;;;;;;;85.80;41.30;;;;;;;1.43;100.00;102388.44;4898485;29;20044;-69
2022/01/18 07:55:02;;;;;;;73.00;39.75;;;;;;;1.64;100.00;102396.97;4897125;29;20056;-70
2022/01/18 07:57:30;;;;;;;85.20;40.67;;;;;;;1.79;100.00;102395.22;4898439;29;20071;-70
2022/01/18 07:59:58;;;;;;;88.90;40.03;;;;;;;1.90;100.00;102412.88;4897031;29;20389;-70
2022/01/18 08:02:41;;;;;;;82.05;39.78;;;;;;;2.14;100.00;102411.91;4898314;29;20404;-70
2022/01/18 08:05:11;;;;;;;75.78;39.55;;;;;;;2.34;100.00;102416.03;4897077;29;20040;-70
2022/01/18 08:07:40;;;;;;;70.80;38.90;;;;;;;2.41;100.00;102414.28;4898254;29;20049;-70
2022/01/18 08:10:09;;;;;;;76.00;38.58;;;;;;;2.58;100.00;102420.41;4898093;29;20500;-71
2022/01/18 08:12:37;;;;;;;86.85;41.10;;;;;;;2.64;100.00;102422.38;4898037;29;20048;-71
2022/01/18 08:15:19;;;;;;;75.03;40.20;;;;;;;2.90;100.00;102434.69;4897755;29;20492;-70
2022/01/18 08:17:53;;;;;;;78.15;40.13;;;;;;;3.13;99.90;102435.66;4898050;29;20056;-71
2022/01/18 08:20:21;;;;;;;83.28;40.50;;;;;;;2.94;100.00;102435.97;4897820;29;20048;-70
2022/01/18 08:22:49;;;;;;;81.13;40.47;;;;;;;3.39;98.28;102448.75;4897847;29;20041;-71
2022/01/18 08:25:17;;;;;;;74.50;38.63;;;;;;;3.65;95.96;102436.63;4895913;29;20515;-70
2022/01/18 08:27:45;;;;;;;78.78;39.30;;;;;;;3.59;94.62;102443.63;4897821;29;20048;-71
2022/01/18 08:30:17;;;;;;;73.57;38.50;;;;;;;3.45;95.85;102442.59;4912000;29;20079;-71
2022/01/18 08:32:46;;;;;;;71.53;38.65;;;;;;;3.43;96.19;102458.16;4897768;29;20050;-71
2022/01/18 08:35:15;;;;;;;71.82;36.85;;;;;;;3.41;96.99;102468.34;4897709;29;20057;-70
2022/01/18 08:37:43;;;;;;;71.80;39.55;;;;;;;3.36;98.08;102458.09;4897746;29;20036;-71
2022/01/18 08:40:12;;;;;;;72.97;40.15;;;;;;;3.81;95.95;102451.00;4896621;29;20052;-70
2022/01/18 08:42:44;;;;;;;77.68;39.17;;;;;;;4.14;94.03;102456.84;4898683;29;20059;-70
2022/01/18 08:45:12;;;;;;;71.03;39.78;;;;;;;4.37;94.29;102449.56;4897552;29;20052;-70
2022/01/18 08:47:45;;;;;;;74.03;37.90;;;;;;;4.54;92.99;102459.16;4897504;29;20040;-70
2022/01/18 08:50:13;;;;;;;75.40;39.72;;;;;;;4.59;91.86;102468.59;4896085;29;20048;-70
2022/01/18 08:52:41;;;;;;;82.97;41.60;;;;;;;4.60;92.71;102470.25;4897403;29;20477;-70
2022/01/18 08:55:09;;;;;;;80.63;39.97;;;;;;;4.85;91.97;102462.56;4896967;29;20518;-70
2022/01/18 08:57:37;;;;;;;72.47;39.72;;;;;;;5.33;89.58;102470.03;4897167;29;20075;-70
2022/01/18 09:00:08;;;;;;;74.47;39.78;;;;;;;5.51;90.09;102463.28;4897013;29;20052;-70
2022/01/18 09:02:37;;;;;;;72.65;39.45;;;;;;;5.67;88.91;102474.88;4897152;29;20044;-70
2022/01/18 09:05:05;;;;;;;84.60;41.38;;;;;;;5.92;87.25;102473.31;4897223;29;20052;-70
2022/01/18 09:07:35;;;;;;;73.05;39.10;;;;;;;6.10;84.77;102468.44;4897171;29;20057;-70
2022/01/18 09:10:10;;;;;;;69.43;40.33;;;;;;;5.94;84.75;102473.13;4896961;29;20411;-70
2022/01/18 09:12:38;;;;;;;71.05;39.30;;;;;;;6.21;84.19;102470.53;4897129;29;20060;-70
2022/01/18 09:15:09;;;;;;;75.15;40.58;;;;;;;6.48;84.65;102480.66;4897007;29;20055;-70
2022/01/18 09:17:40;;;;;;;75.00;39.40;;;;;;;6.75;83.21;102489.72;4895936;29;20041;-70
2022/01/18 09:20:10;;;;;;;71.68;38.05;;;;;;;6.86;81.58;102489.09;4897001;29;20049;-70
2022/01/18 09:22:41;;;;;;;69.70;37.78;;;;;;;6.83;80.61;102500.41;4895587;29;20051;-69
2022/01/18 09:25:13;;;;;;;67.88;36.85;;;;;;;7.08;81.30;102501.69;4896769;29;20048;-71
2022/01/18 09:27:41;;;;;;;66.55;36.92;;;;;;;7.45;78.85;102503.97;4896964;29;20052;-70
2022/01/18 09:30:09;;;;;;;70.68;37.70;;;;;;;7.55;78.55;102511.72;4896682;29;20411;-70
2022/01/18 09:32:37;;;;;;;70.30;38.35;;;;;;;7.25;77.13;102507.56;4895523;29;20052;-69
2022/01/18 09:35:06;;;;;;;61.90;36.17;;;;;;;7.34;78.99;102513.63;4896615;29;20045;-69
2022/01/18 09:37:34;;;;;;;69.40;37.67;;;;;;;7.61;77.73;102522.63;4895176;29;20535;-69
2022/01/18 09:40:06;;;;;;;63.17;37.00;;;;;;;7.56;76.47;102529.72;4896551;29;20588;-69
2022/01/18 09:42:36;;;;;;;73.35;39.63;;;;;;;7.86;75.42;102529.28;4895105;29;20060;-70
2022/01/18 09:45:08;;;;;;;61.95;34.95;;;;;;;7.91;74.92;102526.75;4895523;29;20052;-69
2022/01/18 09:47:38;;;;;;;71.55;40.17;;;;;;;8.41;74.99;102525.31;4896561;29;20037;-70
2022/01/18 09:50:08;;;;;;;66.68;36.13;;;;;;;8.29;73.39;102519.69;4896314;29;20496;-70
2022/01/18 09:52:36;;;;;;;63.38;38.40;;;;;;;8.69;72.92;102518.66;4896645;29;20400;-70
2022/01/18 09:55:07;;;;;;;61.92;36.63;;;;;;;8.64;72.32;102523.97;4896251;29;20053;-70
2022/01/18 09:57:37;;;;;;;75.10;39.30;;;;;;;8.56;73.24;102525.06;4896540;29;20060;-71
2022/01/18 10:00:08;;;;;;;67.18;38.25;;;;;;;9.03;72.49;102537.59;4896291;29;20056;-69
2022/01/18 10:02:39;;;;;;;;;;;;;;;9.06;69.59;102542.59;4896749;29;20071;-70
2022/01/18 10:05:21;;;;;;;60.75;33.92;;;;;;;9.09;70.19;102542.16;4896403;29;20294;-70
2022/01/18 10:08:08;;;;;;;62.60;34.22;;;;;;;9.77;68.92;102542.38;4896492;29;20395;-70
2022/01/18 10:10:46;;;;;;;61.92;36.50;;;;;;;9.99;66.33;102539.22;4896667;29;20044;-70
2022/01/18 10:13:28;;;;;;;59.55;35.58;;;;;;;9.74;65.53;102535.50;4896365;29;20048;-70
2022/01/18 10:16:07;;;;;;;63.20;35.47;;;;;;;9.54;68.68;102538.44;4896450;29;20044;-70
2022/01/18 10:18:48;;;;;;;64.28;36.40;;;;;;;9.47;68.53;102534.91;4896695;29;20401;-70
2022/01/18 10:21:30;;;;;;;65.93;36.20;;;;;;;9.57;68.34;102537.97;4896614;29;20093;-71
2022/01/18 10:24:15;;;;;;;57.33;34.40;;;;;;;9.47;67.30;102526.69;4896325;29;20052;-71
2022/01/18 10:26:46;;;;;;;60.05;33.67;;;;;;;9.85;67.17;102533.06;4895082;29;20059;-71
2022/01/18 10:29:16;;;;;;;59.67;34.03;;;;;;;9.79;65.06;102532.91;4896364;29;20049;-71
2022/01/18 10:37:01;;;;;;;52.28;31.63;;;;;;;10.24;62.12;102533.66;4895476;29;20052;-71
2022/01/18 10:39:43;;;;;;;53.60;31.93;;;;;;;10.02;62.67;102539.59;4884184;29;20055;-71
2022/01/18 10:42:38;;;;;;;50.88;26.17;;;;;;;9.59;60.20;102524.94;4894678;29;20049;-71
2022/01/18 10:45:13;;;;;;;45.28;27.45;;;;;;;9.94;60.55;102521.59;4896336;29;20045;-71
2022/01/18 10:47:52;;;;;;;46.58;27.13;;;;;;;10.42;59.79;102516.38;4896280;29;20056;-70
2022/01/18 10:50:20;;;;;;;48.83;28.08;;;;;;;10.24;60.16;102519.16;4899577;29;20075;-70
2022/01/18 10:52:52;;;;;;;40.55;25.00;;;;;;;10.11;56.63;102514.69;4899526;29;20045;-70
2022/01/18 10:55:22;;;;;;;47.40;27.77;;;;;;;10.37;57.60;102510.78;4899524;29;20492;-70
2022/01/18 10:57:51;;;;;;;47.30;28.02;;;;;;;10.77;56.50;102514.03;4899549;29;20495;-70
2022/01/18 11:00:22;;;;;;;43.63;26.95;;;;;;;10.67;56.47;102518.19;4899394;29;20075;-70
2022/01/18 11:02:52;;;;;;;45.80;27.48;;;;;;;10.82;58.12;102508.69;4899471;29;20040;-70
2022/01/18 11:05:29;;;;;;;48.63;27.40;;;;;;;10.94;55.76;102515.03;4897907;29;20055;-70
2022/01/18 11:08:04;;;;;;;44.38;23.98;;;;;;;10.98;53.82;102513.50;4899336;29;20049;-73
2022/01/18 11:10:34;;;;;;;45.65;25.65;;;;;;;10.65;54.79;102517.56;4899184;29;20044;-71
2022/01/18 11:13:24;;;;;;;46.17;25.77;;;;;;;10.56;54.02;102521.72;4899120;29;20041;-71
2022/01/18 11:16:02;;;;;;;42.33;23.50;;;;;;;10.61;54.51;102519.13;4899133;29;20060;-71
2022/01/18 11:18:36;;;;;;;41.47;24.95;;;;;;;10.99;53.76;102525.28;4898903;29;20048;-72
2022/01/18 11:21:06;;;;;;;44.45;24.23;;;;;;;11.09;51.22;102511.84;4899076;29;20044;-71
2022/01/18 11:23:35;;;;;;;41.05;23.70;;;;;;;10.79;53.40;102514.66;4898954;29;20049;-71
2022/01/18 11:26:03;;;;;;;45.40;24.52;;;;;;;10.89;52.34;102509.44;4899073;29;20048;-71
2022/01/18 11:28:34;;;;;;;40.63;23.35;;;;;;;11.09;52.57;102514.59;4898532;29;20059;-71
2022/01/18 11:31:10;;;;;;;43.55;24.13;;;;;;;10.98;53.52;102519.00;4898641;29;20045;-71
2022/01/18 11:33:54;;;;;;;43.15;23.73;;;;;;;11.03;53.75;102515.53;4898830;29;20079;-71
2022/01/18 11:36:26;;;;;;;38.50;23.52;;;;;;;11.30;53.05;102523.34;4898227;29;20080;-71
2022/01/18 11:39:00;;;;;;;41.97;24.35;;;;;;;11.05;52.64;102518.03;4898633;29;20049;-73
2022/01/18 11:41:30;;;;;;;45.88;23.70;;;;;;;10.68;55.56;102508.91;4898344;29;20053;-71
2022/01/18 11:44:10;;;;;;;39.50;25.08;;;;;;;11.01;53.32;102512.19;4896899;29;20055;-70
2022/01/18 11:46:47;;;;;;;38.40;22.25;;;;;;;11.19;52.19;102514.00;4897096;29;20492;-70
2022/01/18 11:49:19;;;;;;;42.03;23.10;;;;;;;11.12;53.50;102518.78;4898271;29;20425;-71
2022/01/18 11:51:59;;;;;;;37.05;23.00;;;;;;;11.26;53.06;102514.75;4898192;29;20041;-72
2022/01/18 11:57:27;;;;;;;36.83;20.98;;;;;;;11.20;51.38;102512.94;4896594;29;20063;-70
2022/01/18 12:00:18;;;;;;;39.60;21.53;;;;;;;11.13;52.25;102514.94;4896159;29;20051;-72
2022/01/18 12:02:48;;;;;;;35.40;21.02;;;;;;;11.10;53.86;102518.19;4895614;29;20048;-72
2022/01/18 12:05:19;;;;;;;35.70;20.80;;;;;;;11.15;53.40;102510.91;4897196;29;20044;-71
2022/01/18 12:08:01;;;;;;;34.95;20.38;;;;;;;11.24;52.66;102511.38;4897836;29;20056;-71
2022/01/18 12:10:38;;;;;;;37.97;21.27;;;;;;;11.43;52.50;102516.75;4897016;29;20045;-71
2022/01/18 12:13:11;;;;;;;36.60;19.88;;;;;;;11.56;51.49;102516.53;4892030;29;20045;-72
2022/01/18 12:15:43;;;;;;;40.17;20.23;;;;;;;11.62;52.02;102509.25;4895790;29;20381;-71
2022/01/18 12:18:23;;;;;;;33.58;19.17;;;;;;;11.52;51.98;102509.88;4896983;29;20475;-70
2022/01/18 12:21:20;;;;;;;32.47;18.35;;;;;;;10.88;53.61;102508.59;4891051;29;20040;-70
2022/01/18 12:23:49;;;;;;;35.10;18.95;;;;;;;10.66;55.36;102512.94;4894829;29;20052;-71
2022/01/18 12:26:27;;;;;;;29.98;18.30;;;;;;;11.18;55.02;102498.63;4897441;29;20063;-71
2022/01/18 12:29:22;;;;;;;32.42;18.27;;;;;;;10.99;55.49;102496.00;4896074;29;20040;-70
2022/01/18 12:37:06;;;;;;;30.30;16.50;;;;;;;11.27;54.83;102508.19;4891073;29;20052;-71
2022/01/18 12:40:08;;;;;;;27.35;15.85;;;;;;;11.39;54.87;102501.88;4897308;29;20074;-70
2022/01/18 12:45:15;;;;;;;27.67;15.35;;;;;;;11.60;53.69;102494.13;4889432;29;20071;-71
2022/01/18 12:47:47;;;;;;;26.63;14.48;;;;;;;11.43;53.58;102494.81;4897068;29;20060;-71
2022/01/18 12:50:17;;;;;;;25.20;14.77;;;;;;;11.50;54.14;102489.25;4897604;29;20060;-72
2022/01/18 12:52:54;;;;;;;25.30;13.20;;;;;;;11.36;53.45;102491.38;4896633;29;20049;-71
2022/01/18 12:55:27;;;;;;;25.50;12.77;;;;;;;11.42;53.26;102485.78;4885455;29;20075;-72